Date,TemperatureHighF,TemperatureAvgF,TemperatureLowF,DewpointHighF,DewpointAvgF,DewpointLowF,HumidityHigh,HumidityAvg,HumidityLow,PressureMaxIn,PressureMinIn,WindSpeedMaxMPH,WindSpeedAvgMPH,GustSpeedMaxMPH,PrecipitationSumIn
2012-12-1,62,38,23,42,32,22,97,80,43,28.62,28.48,6,0,11,0.00
2012-12-2,63,44,27,49,39,26,98,85,53,28.56,28.35,6,1,10,0.00
2012-12-3,65,50,37,55,47,37,98,90,68,28.48,28.41,4,0,8,0.01
2012-12-4,70,49,32,56,43,32,99,84,50,28.49,28.27,7,1,11,0.00
2012-12-5,60,46,26,51,33,24,93,64,33,28.50,28.27,5,1,13,0.00
2012-12-6,49,32,18,34,27,17,97,81,54,28.53,28.35,4,0,8,0.00
2012-12-7,60,46,38,46,39,32,95,77,59,28.35,28.17,5,1,10,0.00
2012-12-8,65,52,41,52,46,40,97,82,55,28.26,28.11,7,0,15,0.00
2012-12-9,53,49,47,53,48,46,99,97,94,28.36,28.15,6,0,12,0.40
2012-12-10,59,55,43,56,52,35,96,89,72,28.14,27.84,9,2,15,0.07
2012-12-11,42,36,24,39,30,23,95,80,61,28.42,27.99,7,1,10,0.01
2012-12-12,37,30,23,29,26,22,96,86,67,28.61,28.42,3,0,6,0.00
2012-12-13,48,27,16,31,22,14,97,83,38,28.65,28.52,2,0,6,0.00
2012-12-14,58,30,16,32,21,15,97,75,20,28.52,28.40,2,0,3,0.01
2012-12-15,56,39,23,37,27,22,96,68,29,28.47,28.26,6,1,12,0.04
2012-12-16,51,44,36,45,40,34,96,86,70,28.26,28.05,6,1,11,0.04
2012-12-17,55,44,34,49,42,33,99,92,76,28.07,27.81,9,0,11,0.18
2012-12-18,47,40,29,43,36,28,99,85,65,28.06,27.80,8,1,18,0.21
2012-12-19,53,40,26,35,32,25,96,75,49,28.38,28.04,12,1,16,0.00
2012-12-20,42,34,27,39,33,26,97,93,77,28.38,27.67,9,1,17,0.37
2012-12-21,40,33,30,39,24,19,98,72,63,27.89,27.63,16,3,41,0.15
2012-12-22,36,29,19,23,20,17,90,69,51,28.26,27.89,10,2,25,0.02
2012-12-23,54,32,16,26,20,13,92,68,29,28.25,28.08,8,2,12,0.00
2012-12-24,33,29,20,33,27,19,97,94,86,28.21,28.06,1,0,3,0.00
2012-12-25,47,37,31,40,33,30,98,86,63,28.38,28.09,7,1,7,0.12
2012-12-26,35,29,24,31,27,23,96,93,84,28.37,27.77,5,1,8,0.00
2012-12-27,36,31,24,31,24,22,95,76,67,28.27,27.76,10,2,32,0.00
2012-12-28,44,31,21,30,25,19,94,79,49,28.32,28.18,1,0,10,0.09
2012-12-29,43,34,29,32,28,26,93,79,61,28.19,27.82,9,2,19,0.11
2012-12-30,35,27,14,25,18,11,90,71,51,28.52,28.12,11,2,24,0.00
2012-12-31,46,28,12,27,18,10,93,70,28,28.50,28.21,7,1,16,0.01